Time;durP1;ratioP1;P1;durP2;ratioP2;P2;SDS_P1;SDS_P2;PMS_P1;PMS_P2;Temp;Humidity;BMP_temperature;BMP_pressure;BME280_temperature;BME280_humidity;BME280_pressure;Samples;Min_cycle;Max_cycle;Signal;HPM_P1;HPM_P2
2023/10/23 00:00:00;;;;;;;11.27;7.95;;;;;;;;;;5013719;28;20034;-71
2023/10/23 00:02:27;;;;;;;9.27;7.28;;;;;;;;;;5015054;28;20033;-71
2023/10/23 00:04:52;;;;;;;8.35;7.20;;;;;;;;;;5015206;28;20093;-71
2023/10/23 00:07:18;;;;;;;8.93;7.55;;;;;;;;;;5014348;28;20088;-71
2023/10/23 00:09:43;;;;;;;8.65;7.28;;;;;;;;;;5013434;28;20037;-71
2023/10/23 00:12:09;;;;;;;9.02;7.88;;;;;;;;;;5014536;28;20034;-71
2023/10/23 00:14:35;;;;;;;8.02;7.10;;;;;;;;;;5014503;28;20049;-71
2023/10/23 00:17:00;;;;;;;8.70;7.80;;;;;;;;;;5013096;28;20041;-71
2023/10/23 00:19:26;;;;;;;9.18;7.82;;;;;;;;;;5013308;28;20107;-71
2023/10/23 00:21:51;;;;;;;9.20;8.15;;;;;;;;;;4997185;28;20018;-72
2023/10/23 00:24:17;;;;;;;8.95;8.00;;;;;;;;;;5014326;28;20457;-72
2023/10/23 00:26:42;;;;;;;8.50;7.70;;;;;;;;;;5013864;28;20562;-72
2023/10/23 00:29:08;;;;;;;7.85;6.90;;;;;;;;;;5014463;28;20050;-70
2023/10/23 00:31:33;;;;;;;9.68;8.20;;;;;;;;;;5014019;28;20373;-71
2023/10/23 00:34:05;;;;;;;8.80;7.38;;;;;;;;;;5014223;28;20026;-70
2023/10/23 00:36:30;;;;;;;11.27;8.70;;;;;;;;;;5012768;28;20117;-70
2023/10/23 00:38:56;;;;;;;10.13;8.30;;;;;;;;;;5013912;28;20124;-70
2023/10/23 00:41:21;;;;;;;9.35;7.95;;;;;;;;;;5014119;28;20026;-68
2023/10/23 00:43:47;;;;;;;9.70;8.73;;;;;;;;;;4996294;28;20026;-68
2023/10/23 00:46:14;;;;;;;10.93;9.27;;;;;;;;;;5012740;28;20030;-68
2023/10/23 00:48:39;;;;;;;10.90;9.43;;;;;;;;;;5013188;28;20033;-67
2023/10/23 00:51:05;;;;;;;8.90;8.02;;;;;;;;;;5014104;28;20026;-68
2023/10/23 00:53:36;;;;;;;9.65;8.65;;;;;;;;;;5013921;28;20038;-68
2023/10/23 00:56:03;;;;;;;9.38;8.48;;;;;;;;;;5014147;28;20033;-68
2023/10/23 00:58:30;;;;;;;12.52;10.30;;;;;;;;;;4996216;28;20118;-68
2023/10/23 01:00:57;;;;;;;10.95;9.82;;;;;;;;;;4996110;28;20472;-68
2023/10/23 01:03:22;;;;;;;11.02;9.93;;;;;;;;;;5013685;28;20034;-69
2023/10/23 01:05:48;;;;;;;10.15;9.05;;;;;;;;;;4996501;28;20026;-69
2023/10/23 01:08:14;;;;;;;11.25;8.52;;;;;;;;;;5012811;28;20490;-69
2023/10/23 01:10:39;;;;;;;9.25;8.27;;;;;;;;;;4996683;28;20030;-69
2023/10/23 01:13:06;;;;;;;11.05;8.85;;;;;;;;;;4996349;28;20404;-70
2023/10/23 01:15:31;;;;;;;9.80;8.82;;;;;;;;;;4996047;28;20165;-69
2023/10/23 01:17:59;;;;;;;10.02;8.32;;;;;;;;;;4996228;28;20101;-69
2023/10/23 01:20:26;;;;;;;11.00;8.77;;;;;;;;;;4995963;28;20056;-71
2023/10/23 01:22:54;;;;;;;10.43;9.07;;;;;;;;;;4995903;28;20392;-69
2023/10/23 01:25:19;;;;;;;9.98;8.57;;;;;;;;;;5012901;28;20022;-69
2023/10/23 01:27:45;;;;;;;9.70;8.20;;;;;;;;;;4996407;28;20096;-69
2023/10/23 01:30:10;;;;;;;12.23;9.07;;;;;;;;;;5013458;28;20032;-70
2023/10/23 01:32:36;;;;;;;14.52;10.57;;;;;;;;;;5014082;28;20372;-71
2023/10/23 01:35:01;;;;;;;16.60;11.75;;;;;;;;;;5013991;28;20017;-71
2023/10/23 01:37:27;;;;;;;22.38;14.45;;;;;;;;;;5012171;28;20037;-70
2023/10/23 01:39:52;;;;;;;36.85;19.20;;;;;;;;;;4996365;28;20361;-69
2023/10/23 01:42:18;;;;;;;33.30;18.48;;;;;;;;;;5013365;28;20030;-69
2023/10/23 01:44:43;;;;;;;19.52;12.35;;;;;;;;;;5016851;28;20520;-69
2023/10/23 01:47:09;;;;;;;16.45;11.70;;;;;;;;;;5017267;28;20076;-69
2023/10/23 01:49:35;;;;;;;20.73;13.05;;;;;;;;;;5017080;28;20213;-72
2023/10/23 01:52:00;;;;;;;26.85;15.88;;;;;;;;;;5016469;28;20041;-72
2023/10/23 01:54:26;;;;;;;24.83;14.70;;;;;;;;;;5015718;28;20038;-72
2023/10/23 01:56:51;;;;;;;11.75;9.75;;;;;;;;;;5017313;28;20022;-72
2023/10/23 01:59:18;;;;;;;16.58;12.05;;;;;;;;;;4999063;28;20056;-72
2023/10/23 02:01:44;;;;;;;14.90;11.13;;;;;;;;;;4999106;28;20036;-72
2023/10/23 02:04:09;;;;;;;10.05;8.90;;;;;;;;;;5017353;28;20423;-72
2023/10/23 02:06:35;;;;;;;9.95;8.80;;;;;;;;;;4999014;28;20030;-72
2023/10/23 02:09:00;;;;;;;10.68;9.00;;;;;;;;;;4999560;28;20048;-72
2023/10/23 02:11:26;;;;;;;10.02;9.00;;;;;;;;;;5016755;28;20050;-71
2023/10/23 02:13:51;;;;;;;10.55;8.98;;;;;;;;;;4998851;28;20382;-72
2023/10/23 02:16:17;;;;;;;11.20;8.60;;;;;;;;;;4998850;28;20026;-72
2023/10/23 02:18:43;;;;;;;11.60;9.98;;;;;;;;;;4998619;28;20480;-72
2023/10/23 02:21:09;;;;;;;11.15;9.20;;;;;;;;;;4998708;28;20067;-72
2023/10/23 02:23:34;;;;;;;10.13;8.50;;;;;;;;;;5016455;28;20030;-72
2023/10/23 02:26:00;;;;;;;10.40;8.05;;;;;;;;;;5015524;28;20029;-72
2023/10/23 02:28:25;;;;;;;10.70;8.93;;;;;;;;;;4998622;28;20407;-72
2023/10/23 02:30:51;;;;;;;8.90;8.00;;;;;;;;;;5016648;28;20037;-71
2023/10/23 02:33:16;;;;;;;8.90;7.88;;;;;;;;;;5015325;28;20038;-70
2023/10/23 02:35:44;;;;;;;10.70;9.30;;;;;;;;;;4999059;28;20116;-70
2023/10/23 02:38:09;;;;;;;10.55;8.55;;;;;;;;;;4998909;28;20442;-70
2023/10/23 02:40:36;;;;;;;10.18;8.95;;;;;;;;;;5015385;28;20049;-71
2023/10/23 02:43:01;;;;;;;10.65;8.50;;;;;;;;;;4998544;28;20468;-70
2023/10/23 02:45:26;;;;;;;9.05;8.15;;;;;;;;;;5015912;28;20357;-71
2023/10/23 02:47:53;;;;;;;9.60;8.30;;;;;;;;;;5016386;28;20087;-71
2023/10/23 02:50:19;;;;;;;11.27;9.02;;;;;;;;;;5014944;28;20384;-71
2023/10/23 02:52:45;;;;;;;11.40;8.60;;;;;;;;;;5016130;28;20042;-71
2023/10/23 02:55:11;;;;;;;11.05;8.77;;;;;;;;;;5015900;28;20029;-71
2023/10/23 03:00:42;;;;;;;12.02;8.45;;;;;;;;;;4942749;23;20169;-71
2023/10/23 03:03:08;;;;;;;10.83;8.90;;;;;;;;;;4997966;28;20022;-70
2023/10/23 03:05:33;;;;;;;10.60;8.48;;;;;;;;;;5015962;28;20030;-69
2023/10/23 03:07:59;;;;;;;9.75;8.70;;;;;;;;;;5015619;28;20068;-69
2023/10/23 03:10:24;;;;;;;10.48;8.73;;;;;;;;;;5015902;28;20387;-68
2023/10/23 03:12:50;;;;;;;9.63;8.65;;;;;;;;;;5015866;28;20465;-69
2023/10/23 03:15:16;;;;;;;10.20;8.40;;;;;;;;;;5015277;28;20391;-69
2023/10/23 03:17:42;;;;;;;10.90;8.73;;;;;;;;;;5015398;28;20044;-70
2023/10/23 03:20:08;;;;;;;10.95;9.48;;;;;;;;;;5015109;28;20126;-68
2023/10/23 03:22:34;;;;;;;11.02;8.98;;;;;;;;;;4997604;28;20357;-70
2023/10/23 03:24:59;;;;;;;12.68;9.23;;;;;;;;;;4997486;28;20037;-71
2023/10/23 03:27:25;;;;;;;10.02;8.35;;;;;;;;;;5013815;28;20477;-71
2023/10/23 03:29:50;;;;;;;12.18;8.30;;;;;;;;;;4997410;28;20049;-71
2023/10/23 03:32:16;;;;;;;9.70;7.65;;;;;;;;;;4997638;28;20026;-73
2023/10/23 03:34:41;;;;;;;10.45;8.70;;;;;;;;;;5015686;28;20065;-73
2023/10/23 03:37:07;;;;;;;13.70;9.52;;;;;;;;;;5015361;28;20030;-73
2023/10/23 03:39:33;;;;;;;15.77;11.60;;;;;;;;;;5014067;28;20044;-73
2023/10/23 03:41:59;;;;;;;14.23;10.98;;;;;;;;;;5015124;28;20021;-72
2023/10/23 03:44:25;;;;;;;11.80;9.73;;;;;;;;;;4997196;28;20121;-71
2023/10/23 03:46:50;;;;;;;12.80;9.02;;;;;;;;;;5014477;28;20099;-70
2023/10/23 03:49:15;;;;;;;13.00;8.65;;;;;;;;;;5014721;28;20040;-71
2023/10/23 03:51:41;;;;;;;8.82;7.43;;;;;;;;;;5014811;28;20030;-71
2023/10/23 03:54:06;;;;;;;9.02;7.30;;;;;;;;;;5015042;28;20040;-71
2023/10/23 03:56:32;;;;;;;8.93;7.93;;;;;;;;;;4997240;28;20022;-71
2023/10/23 03:58:59;;;;;;;11.23;7.88;;;;;;;;;;5013638;28;20050;-72
2023/10/23 04:01:24;;;;;;;10.18;7.93;;;;;;;;;;5014883;28;20092;-73
2023/10/23 04:03:50;;;;;;;10.48;7.90;;;;;;;;;;5015006;28;20408;-71
2023/10/23 04:06:15;;;;;;;11.48;8.05;;;;;;;;;;5013812;28;20041;-72
2023/10/23 04:08:41;;;;;;;8.95;7.45;;;;;;;;;;4980813;28;20125;-68
2023/10/23 04:11:07;;;;;;;10.98;7.45;;;;;;;;;;5014188;28;20030;-69
2023/10/23 04:13:35;;;;;;;10.23;8.32;;;;;;;;;;5014751;28;20037;-68
2023/10/23 04:16:02;;;;;;;10.25;7.45;;;;;;;;;;5014806;28;20452;-68
2023/10/23 04:18:27;;;;;;;9.05;7.53;;;;;;;;;;5014052;28;20038;-71
2023/10/23 04:21:02;;;;;;;11.65;7.05;;;;;;;;;;5014110;28;20080;-71
2023/10/23 04:23:27;;;;;;;14.10;8.40;;;;;;;;;;4997076;28;20092;-72
2023/10/23 04:25:53;;;;;;;19.45;9.70;;;;;;;;;;5013745;28;20038;-71
2023/10/23 04:28:19;;;;;;;20.92;10.35;;;;;;;;;;5013316;28;20033;-68
2023/10/23 04:30:44;;;;;;;12.45;8.55;;;;;;;;;;5013570;28;20033;-69
2023/10/23 04:33:10;;;;;;;12.15;7.80;;;;;;;;;;5014676;28;20029;-69
2023/10/23 04:35:35;;;;;;;10.25;7.60;;;;;;;;;;5013320;28;20057;-67
2023/10/23 04:38:00;;;;;;;11.82;7.65;;;;;;;;;;4996194;28;20038;-64
2023/10/23 04:40:26;;;;;;;8.85;6.85;;;;;;;;;;4996807;28;20018;-64
2023/10/23 04:42:51;;;;;;;9.93;7.22;;;;;;;;;;4996844;28;20034;-64
2023/10/23 04:45:17;;;;;;;13.00;7.25;;;;;;;;;;5014165;28;20030;-65
2023/10/23 04:47:42;;;;;;;10.27;7.82;;;;;;;;;;5014132;28;20045;-65
2023/10/23 04:50:07;;;;;;;10.98;7.72;;;;;;;;;;4996679;28;20029;-64
2023/10/23 04:52:33;;;;;;;12.73;7.82;;;;;;;;;;5014057;28;20109;-65
2023/10/23 04:54:58;;;;;;;9.98;7.30;;;;;;;;;;4995971;28;20472;-65
2023/10/23 04:57:24;;;;;;;9.70;7.18;;;;;;;;;;5014369;28;20055;-66
2023/10/23 04:59:49;;;;;;;7.57;6.38;;;;;;;;;;5013796;28;20041;-63
2023/10/23 05:02:14;;;;;;;10.10;7.03;;;;;;;;;;4996779;28;20061;-63
2023/10/23 05:04:40;;;;;;;12.07;7.18;;;;;;;;;;4996546;28;20141;-64
2023/10/23 05:07:05;;;;;;;9.85;8.85;;;;;;;;;;4996474;28;20503;-63
2023/10/23 05:09:31;;;;;;;14.25;9.52;;;;;;;;;;4996062;28;20484;-64
2023/10/23 05:11:56;;;;;;;12.30;9.80;;;;;;;;;;5013591;28;20173;-63
2023/10/23 05:14:22;;;;;;;14.07;9.50;;;;;;;;;;4996504;28;20042;-63
2023/10/23 05:16:47;;;;;;;12.23;9.63;;;;;;;;;;5014093;28;20041;-62
2023/10/23 05:19:12;;;;;;;12.60;9.57;;;;;;;;;;5017813;28;20044;-62
2023/10/23 05:21:38;;;;;;;12.55;9.25;;;;;;;;;;5017293;28;20084;-62
2023/10/23 05:24:03;;;;;;;10.20;6.55;;;;;;;;;;4999880;28;20076;-62
2023/10/23 05:26:29;;;;;;;7.57;5.78;;;;;;;;;;5017301;28;20018;-63
2023/10/23 05:28:54;;;;;;;7.00;6.05;;;;;;;;;;5000015;28;20042;-66
2023/10/23 05:31:20;;;;;;;7.97;6.43;;;;;;;;;;5017497;28;20025;-66
2023/10/23 05:33:45;;;;;;;8.43;5.90;;;;;;;;;;4999610;28;20080;-66
2023/10/23 05:36:11;;;;;;;8.15;5.65;;;;;;;;;;5017579;28;20038;-66
2023/10/23 05:38:37;;;;;;;6.70;5.57;;;;;;;;;;5017524;28;20069;-66
2023/10/23 05:41:02;;;;;;;9.80;6.38;;;;;;;;;;5017240;28;20080;-64
2023/10/23 05:43:28;;;;;;;11.30;6.57;;;;;;;;;;5016544;28;20034;-66
2023/10/23 05:45:54;;;;;;;9.60;6.95;;;;;;;;;;5016502;28;20030;-66
2023/10/23 05:48:20;;;;;;;15.10;8.13;;;;;;;;;;4998457;28;20083;-66
2023/10/23 05:50:45;;;;;;;11.52;8.07;;;;;;;;;;5017030;28;20461;-65
2023/10/23 05:53:11;;;;;;;8.63;6.05;;;;;;;;;;5017417;28;20034;-66
2023/10/23 05:55:36;;;;;;;14.20;7.72;;;;;;;;;;5017040;28;20038;-64
2023/10/23 05:58:02;;;;;;;7.78;6.35;;;;;;;;;;5016585;28;20416;-66
2023/10/23 06:00:28;;;;;;;9.00;5.82;;;;;;;;;;5016318;28;20042;-66
2023/10/23 06:02:53;;;;;;;8.60;5.57;;;;;;;;;;5015624;28;20030;-66
2023/10/23 06:05:19;;;;;;;8.75;5.75;;;;;;;;;;4998136;28;20034;-65
2023/10/23 06:07:44;;;;;;;11.13;6.85;;;;;;;;;;5015504;28;20087;-66
2023/10/23 06:10:09;;;;;;;8.63;6.13;;;;;;;;;;4998028;28;20084;-66
2023/10/23 06:12:35;;;;;;;9.05;6.55;;;;;;;;;;4997912;28;20045;-65
2023/10/23 06:15:00;;;;;;;12.27;7.00;;;;;;;;;;4998039;28;20534;-65
2023/10/23 06:17:26;;;;;;;9.27;6.70;;;;;;;;;;5015361;28;20026;-66
2023/10/23 06:19:51;;;;;;;13.50;7.45;;;;;;;;;;4997604;28;20092;-66
2023/10/23 06:22:16;;;;;;;12.77;7.57;;;;;;;;;;4997722;28;20014;-66
2023/10/23 06:24:44;;;;;;;11.20;7.43;;;;;;;;;;5015245;28;20036;-65
2023/10/23 06:27:10;;;;;;;12.05;6.93;;;;;;;;;;5015495;28;20026;-66
2023/10/23 06:29:35;;;;;;;13.40;7.70;;;;;;;;;;5014358;28;20018;-66
2023/10/23 06:32:01;;;;;;;11.95;7.65;;;;;;;;;;5015136;28;20049;-66
2023/10/23 06:34:27;;;;;;;9.95;7.47;;;;;;;;;;5015067;28;20034;-66
2023/10/23 06:36:53;;;;;;;11.82;8.10;;;;;;;;;;5015017;28;20080;-66
2023/10/23 06:39:18;;;;;;;11.45;8.23;;;;;;;;;;5014908;28;20017;-63
2023/10/23 06:41:43;;;;;;;9.82;7.55;;;;;;;;;;5014961;28;20065;-65
2023/10/23 06:44:09;;;;;;;11.98;7.30;;;;;;;;;;5015046;28;20021;-65
2023/10/23 06:46:35;;;;;;;11.98;7.28;;;;;;;;;;5014987;28;20099;-65
2023/10/23 06:49:00;;;;;;;8.52;6.90;;;;;;;;;;4997404;28;20029;-65
2023/10/23 06:51:25;;;;;;;10.27;6.95;;;;;;;;;;5014982;28;20378;-65
2023/10/23 06:53:51;;;;;;;7.60;6.43;;;;;;;;;;5014841;28;20052;-65
2023/10/23 06:56:16;;;;;;;11.18;6.85;;;;;;;;;;4997172;28;20033;-65
2023/10/23 06:58:41;;;;;;;11.80;6.95;;;;;;;;;;4996807;28;20022;-65
2023/10/23 07:01:07;;;;;;;13.65;8.02;;;;;;;;;;4997389;28;20030;-65
2023/10/23 07:03:33;;;;;;;12.95;7.88;;;;;;;;;;5014564;28;20026;-65
2023/10/23 07:06:02;;;;;;;12.05;7.70;;;;;;;;;;5014603;28;20084;-65
2023/10/23 07:08:28;;;;;;;14.82;9.00;;;;;;;;;;4997931;28;20388;-65
2023/10/23 07:10:53;;;;;;;13.18;9.23;;;;;;;;;;5015520;28;20014;-65
2023/10/23 07:13:18;;;;;;;17.00;11.68;;;;;;;;;;5016134;28;20030;-65
2023/10/23 07:15:44;;;;;;;24.33;16.52;;;;;;;;;;5015510;28;20038;-65
2023/10/23 07:18:10;;;;;;;23.27;19.60;;;;;;;;;;5015541;28;20041;-65
2023/10/23 07:20:35;;;;;;;80.38;55.60;;;;;;;;;;4997617;28;20125;-65
2023/10/23 07:23:02;;;;;;;10.93;7.72;;;;;;;;;;5016107;28;20045;-65
2023/10/23 07:25:27;;;;;;;10.93;7.30;;;;;;;;;;5015678;28;20025;-65
2023/10/23 07:27:52;;;;;;;11.48;6.05;;;;;;;;;;5015434;28;20034;-65
2023/10/23 07:30:18;;;;;;;10.27;5.70;;;;;;;;;;5015660;28;20061;-65
2023/10/23 07:32:47;;;;;;;8.10;7.13;;;;;;;;;;4997322;28;20025;-64
2023/10/23 07:35:14;;;;;;;12.30;6.60;;;;;;;;;;5015296;28;20089;-65
2023/10/23 07:37:41;;;;;;;7.25;5.78;;;;;;;;;;5014975;28;20030;-65
2023/10/23 07:40:06;;;;;;;6.80;4.80;;;;;;;;;;5014650;28;20384;-65
2023/10/23 07:42:35;;;;;;;10.25;5.95;;;;;;;;;;5014760;28;20034;-65
2023/10/23 07:45:00;;;;;;;9.98;5.53;;;;;;;;;;5015134;28;20037;-65
2023/10/23 07:47:27;;;;;;;9.18;6.22;;;;;;;;;;4997315;28;20030;-65
2023/10/23 07:49:52;;;;;;;8.65;6.07;;;;;;;;;;4997388;28;20038;-65
2023/10/23 07:52:17;;;;;;;9.65;6.38;;;;;;;;;;5015459;28;20034;-65
2023/10/23 07:54:43;;;;;;;10.93;6.32;;;;;;;;;;5014679;28;20029;-65
2023/10/23 07:57:08;;;;;;;9.13;6.50;;;;;;;;;;5014838;28;20029;-64
2023/10/23 07:59:33;;;;;;;10.68;6.60;;;;;;;;;;5014568;28;20088;-65
2023/10/23 08:01:59;;;;;;;9.63;6.05;;;;;;;;;;5014643;28;20033;-65
2023/10/23 08:04:24;;;;;;;11.18;7.45;;;;;;;;;;5014800;28;20457;-65
2023/10/23 08:06:50;;;;;;;8.07;5.80;;;;;;;;;;5015212;28;20022;-65
2023/10/23 08:09:15;;;;;;;12.50;6.90;;;;;;;;;;4997609;28;20377;-65
2023/10/23 08:11:41;;;;;;;9.45;5.78;;;;;;;;;;5015073;28;20058;-65
2023/10/23 08:14:06;;;;;;;9.27;5.97;;;;;;;;;;5014799;28;20057;-65
2023/10/23 08:16:31;;;;;;;8.43;5.78;;;;;;;;;;5014804;28;20045;-65
2023/10/23 08:19:00;;;;;;;7.50;4.97;;;;;;;;;;5014671;28;20045;-62
2023/10/23 08:21:28;;;;;;;7.43;5.15;;;;;;;;;;4996967;28;20381;-62
2023/10/23 08:23:54;;;;;;;9.30;4.75;;;;;;;;;;5014532;28;20018;-62
2023/10/23 08:26:20;;;;;;;8.32;5.28;;;;;;;;;;5014168;28;20387;-62
2023/10/23 08:28:45;;;;;;;6.47;4.32;;;;;;;;;;4996497;28;20033;-62
2023/10/23 08:31:10;;;;;;;6.75;4.82;;;;;;;;;;5014382;28;20032;-62
2023/10/23 08:33:36;;;;;;;34.45;29.90;;;;;;;;;;5014615;28;20026;-62
2023/10/23 08:36:02;;;;;;;18.25;13.30;;;;;;;;;;5014448;28;20033;-62
2023/10/23 08:38:28;;;;;;;8.60;5.40;;;;;;;;;;5014213;28;20047;-64
2023/10/23 08:40:54;;;;;;;6.85;4.65;;;;;;;;;;5014835;28;20499;-65
2023/10/23 08:43:20;;;;;;;6.55;4.70;;;;;;;;;;5014039;28;20026;-65
2023/10/23 08:45:47;;;;;;;7.85;5.20;;;;;;;;;;4996570;28;20503;-65
2023/10/23 08:48:13;;;;;;;9.32;5.35;;;;;;;;;;5014307;28;20032;-65
2023/10/23 08:50:40;;;;;;;6.05;4.10;;;;;;;;;;5014218;28;20368;-65
2023/10/23 08:53:07;;;;;;;6.97;5.30;;;;;;;;;;5013634;28;20057;-65
2023/10/23 08:55:33;;;;;;;6.80;4.18;;;;;;;;;;5013756;28;20037;-64
2023/10/23 08:58:00;;;;;;;8.38;4.93;;;;;;;;;;5014268;28;20018;-65
2023/10/23 09:00:25;;;;;;;6.63;5.28;;;;;;;;;;5013596;28;20042;-64
2023/10/23 09:02:51;;;;;;;8.75;5.35;;;;;;;;;;5014312;28;20114;-65
2023/10/23 09:05:17;;;;;;;6.15;4.78;;;;;;;;;;4996128;28;20179;-64
2023/10/23 09:07:42;;;;;;;5.78;4.70;;;;;;;;;;4996538;28;20029;-65
2023/10/23 09:10:08;;;;;;;7.15;4.97;;;;;;;;;;5014309;28;20026;-65
2023/10/23 09:12:34;;;;;;;8.20;4.90;;;;;;;;;;5012829;28;20447;-65
2023/10/23 09:15:16;;;;;;;7.80;5.00;;;;;;;;;;5011681;28;20029;-65
2023/10/23 09:17:42;;;;;;;5.90;4.80;;;;;;;;;;5012436;28;20036;-65
2023/10/23 09:20:16;;;;;;;9.88;5.15;;;;;;;;;;5012323;28;20464;-65
2023/10/23 09:22:46;;;;;;;9.68;5.57;;;;;;;;;;5012688;28;20026;-65
2023/10/23 09:25:11;;;;;;;8.60;5.22;;;;;;;;;;4996139;28;20058;-65
2023/10/23 09:27:37;;;;;;;7.43;4.70;;;;;;;;;;5013515;28;20475;-65
2023/10/23 09:30:03;;;;;;;6.35;4.93;;;;;;;;;;4996018;28;20431;-65
2023/10/23 09:32:29;;;;;;;5.22;4.72;;;;;;;;;;5013767;28;20088;-65
2023/10/23 09:34:56;;;;;;;5.78;4.90;;;;;;;;;;5013775;28;20105;-65
2023/10/23 09:37:24;;;;;;;7.05;4.45;;;;;;;;;;5013435;28;20037;-65
2023/10/23 09:39:50;;;;;;;8.00;4.00;;;;;;;;;;5014072;28;20037;-65
2023/10/23 09:42:18;;;;;;;5.38;3.85;;;;;;;;;;5013551;28;20034;-65
2023/10/23 09:44:45;;;;;;;7.53;4.47;;;;;;;;;;5013512;28;20029;-65
2023/10/23 09:47:14;;;;;;;7.43;4.15;;;;;;;;;;5013462;28;20025;-65
2023/10/23 09:49:40;;;;;;;6.68;5.22;;;;;;;;;;5013511;28;20038;-65
2023/10/23 09:52:07;;;;;;;7.28;4.60;;;;;;;;;;4996121;28;20045;-65
2023/10/23 09:54:34;;;;;;;6.45;3.55;;;;;;;;;;4995623;28;20500;-65
2023/10/23 09:57:03;;;;;;;6.13;3.72;;;;;;;;;;5013800;28;20045;-65
2023/10/23 09:59:33;;;;;;;8.40;3.55;;;;;;;;;;5013731;28;20049;-65
2023/10/23 10:01:59;;;;;;;;;;;;;;;;;;4980389;28;20619;-65
2023/10/23 10:04:31;;;;;;;6.40;3.87;;;;;;;;;;5014367;28;20004;-65
2023/10/23 10:07:00;;;;;;;8.30;4.50;;;;;;;;;;5016859;28;20311;-65
2023/10/23 10:09:26;;;;;;;6.47;4.28;;;;;;;;;;5016942;28;20041;-65
2023/10/23 10:11:53;;;;;;;6.75;3.97;;;;;;;;;;5017339;28;20030;-65
2023/10/23 10:14:19;;;;;;;7.45;4.40;;;;;;;;;;5016994;28;20472;-65
2023/10/23 10:16:44;;;;;;;6.13;4.28;;;;;;;;;;5016872;28;20041;-65
2023/10/23 10:19:16;;;;;;;6.47;4.53;;;;;;;;;;5017324;28;20038;-65
2023/10/23 10:22:06;;;;;;;5.93;4.07;;;;;;;;;;5016480;28;20053;-65
2023/10/23 10:24:32;;;;;;;6.25;3.85;;;;;;;;;;5004328;28;20048;-65
2023/10/23 10:26:59;;;;;;;5.65;3.10;;;;;;;;;;5016647;28;20053;-65
2023/10/23 10:29:25;;;;;;;5.32;3.60;;;;;;;;;;5016696;28;20413;-65
2023/10/23 10:32:05;;;;;;;8.52;4.03;;;;;;;;;;5016855;28;20022;-65
2023/10/23 10:34:34;;;;;;;5.87;4.30;;;;;;;;;;4998712;28;20037;-65
2023/10/23 10:37:00;;;;;;;5.10;3.80;;;;;;;;;;5016020;28;20030;-65
2023/10/23 10:39:52;;;;;;;3.88;2.88;;;;;;;;;;5015960;28;20077;-62
2023/10/23 10:42:19;;;;;;;3.55;3.20;;;;;;;;;;5016011;28;20030;-61
2023/10/23 10:44:53;;;;;;;4.53;2.88;;;;;;;;;;5016539;28;20026;-61
2023/10/23 10:47:18;;;;;;;5.55;3.35;;;;;;;;;;5016180;28;20034;-61
2023/10/23 10:49:47;;;;;;;6.20;3.45;;;;;;;;;;5016036;28;20041;-61
2023/10/23 10:52:30;;;;;;;8.40;4.18;;;;;;;;;;5016206;28;20041;-61
2023/10/23 10:54:56;;;;;;;5.53;3.85;;;;;;;;;;5015920;28;20461;-62
2023/10/23 10:57:21;;;;;;;6.22;3.90;;;;;;;;;;5016106;28;20034;-64
2023/10/23 10:59:46;;;;;;;6.97;3.75;;;;;;;;;;4998266;28;20044;-63
2023/10/23 11:02:12;;;;;;;5.50;3.60;;;;;;;;;;5015669;28;20478;-64
2023/10/23 11:04:37;;;;;;;5.63;3.20;;;;;;;;;;4998324;28;20029;-65
2023/10/23 11:07:03;;;;;;;5.90;2.80;;;;;;;;;;5015830;28;20064;-64
2023/10/23 11:09:29;;;;;;;4.70;2.72;;;;;;;;;;5015583;28;20364;-65
2023/10/23 11:11:57;;;;;;;4.63;3.33;;;;;;;;;;5016240;28;20121;-64
2023/10/23 11:14:24;;;;;;;4.40;2.72;;;;;;;;;;5015206;28;20026;-64
2023/10/23 11:16:50;;;;;;;4.85;2.72;;;;;;;;;;5014735;28;20125;-65
2023/10/23 11:19:16;;;;;;;4.32;2.42;;;;;;;;;;5015280;28;20042;-66
2023/10/23 11:21:41;;;;;;;4.07;3.00;;;;;;;;;;5015510;28;20037;-64
2023/10/23 11:24:07;;;;;;;4.60;2.63;;;;;;;;;;5015327;28;20508;-64
2023/10/23 11:26:32;;;;;;;7.85;2.85;;;;;;;;;;5015536;28;20041;-64
2023/10/23 11:28:58;;;;;;;4.43;1.88;;;;;;;;;;5015696;28;20029;-64
2023/10/23 11:31:23;;;;;;;2.05;1.42;;;;;;;;;;5015742;28;20034;-64
2023/10/23 11:33:52;;;;;;;3.10;1.80;;;;;;;;;;4997996;28;20092;-64
2023/10/23 11:36:18;;;;;;;1.52;1.40;;;;;;;;;;5015217;28;20034;-64
2023/10/23 11:38:44;;;;;;;3.47;1.60;;;;;;;;;;5015413;28;20077;-65
2023/10/23 11:41:10;;;;;;;2.80;1.70;;;;;;;;;;5027704;23;20492;-63
2023/10/23 11:43:38;;;;;;;2.20;1.35;;;;;;;;;;5014356;28;20044;-65
2023/10/23 11:46:04;;;;;;;3.58;1.73;;;;;;;;;;5012856;28;20029;-65
2023/10/23 11:48:30;;;;;;;2.60;1.60;;;;;;;;;;5012668;28;20476;-65
2023/10/23 11:50:55;;;;;;;3.45;1.40;;;;;;;;;;4995408;28;20045;-65
2023/10/23 11:53:22;;;;;;;4.60;2.70;;;;;;;;;;5013571;28;20037;-64
2023/10/23 11:55:49;;;;;;;2.63;1.55;;;;;;;;;;5014673;28;20118;-64
2023/10/23 11:58:14;;;;;;;1.33;1.23;;;;;;;;;;5013985;28;20121;-64
2023/10/23 12:00:40;;;;;;;4.20;1.80;;;;;;;;;;5012554;28;20445;-64
2023/10/23 12:03:06;;;;;;;4.72;1.45;;;;;;;;;;5012820;28;20441;-64
2023/10/23 12:05:31;;;;;;;2.58;1.40;;;;;;;;;;5013270;28;20095;-65
2023/10/23 12:07:58;;;;;;;3.45;1.25;;;;;;;;;;5013701;28;20455;-65
2023/10/23 12:10:24;;;;;;;3.38;1.30;;;;;;;;;;5011053;28;20407;-64
2023/10/23 12:12:52;;;;;;;3.65;1.38;;;;;;;;;;5012424;28;20038;-64
2023/10/23 12:15:17;;;;;;;4.43;1.42;;;;;;;;;;5013693;28;20037;-65
2023/10/23 12:17:43;;;;;;;3.28;1.48;;;;;;;;;;5014556;28;20030;-64
2023/10/23 12:31:18;;;;;;;3.15;1.20;;;;;;;;;;5090836;27;20955;-61
2023/10/23 12:33:43;;;;;;;3.30;1.65;;;;;;;;;;5091234;28;20111;-61
2023/10/23 12:36:09;;;;;;;4.63;1.35;;;;;;;;;;5089903;28;20487;-61
2023/10/23 12:38:34;;;;;;;3.10;1.52;;;;;;;;;;5090225;28;20025;-61
2023/10/23 12:41:00;;;;;;;3.97;1.83;;;;;;;;;;5089733;28;20058;-61
2023/10/23 12:43:26;;;;;;;2.38;1.67;;;;;;;;;;5090612;28;20029;-61
2023/10/23 12:45:52;;;;;;;3.75;1.88;;;;;;;;;;5090605;28;20527;-61
2023/10/23 12:48:17;;;;;;;2.03;1.55;;;;;;;;;;5090999;28;20463;-61
2023/10/23 12:50:43;;;;;;;4.38;1.30;;;;;;;;;;5091023;28;20066;-61
2023/10/23 12:53:09;;;;;;;3.40;1.92;;;;;;;;;;5090513;28;20120;-61
2023/10/23 12:55:35;;;;;;;2.58;1.58;;;;;;;;;;5090777;28;20107;-61
2023/10/23 12:58:03;;;;;;;1.85;1.20;;;;;;;;;;5090713;28;20434;-61
2023/10/23 13:00:32;;;;;;;3.38;1.70;;;;;;;;;;5090544;28;20482;-61
2023/10/23 13:02:58;;;;;;;3.10;1.58;;;;;;;;;;5090599;28;20050;-61
2023/10/23 13:05:24;;;;;;;2.55;1.45;;;;;;;;;;5090594;28;20531;-61
2023/10/23 13:07:49;;;;;;;2.10;1.63;;;;;;;;;;5090745;28;20012;-61
2023/10/23 13:10:15;;;;;;;2.30;1.70;;;;;;;;;;5089954;28;20020;-61
2023/10/23 13:12:40;;;;;;;2.90;1.48;;;;;;;;;;5090460;28;20434;-61
2023/10/23 13:15:06;;;;;;;4.63;1.63;;;;;;;;;;5089527;28;20032;-61
2023/10/23 13:17:32;;;;;;;3.40;1.73;;;;;;;;;;5088862;28;20032;-61
2023/10/23 13:19:57;;;;;;;5.15;1.95;;;;;;;;;;5089250;28;20036;-61
2023/10/23 13:22:23;;;;;;;3.08;1.33;;;;;;;;;;5088136;28;20029;-61
2023/10/23 13:24:48;;;;;;;3.05;1.77;;;;;;;;;;5088343;28;20077;-61
2023/10/23 13:27:15;;;;;;;3.28;1.38;;;;;;;;;;5089037;28;20471;-61
2023/10/23 13:29:40;;;;;;;2.03;1.33;;;;;;;;;;5089504;28;20052;-61
2023/10/23 13:32:06;;;;;;;3.63;1.55;;;;;;;;;;5077226;28;20031;-61
2023/10/23 13:34:32;;;;;;;3.65;1.50;;;;;;;;;;5075573;28;20052;-61
2023/10/23 13:36:58;;;;;;;2.75;1.48;;;;;;;;;;5076536;28;20028;-61
2023/10/23 13:39:23;;;;;;;2.92;1.33;;;;;;;;;;5076445;28;20039;-61
2023/10/23 13:41:49;;;;;;;1.65;1.27;;;;;;;;;;5076151;28;20032;-61
2023/10/23 13:44:15;;;;;;;2.97;1.08;;;;;;;;;;5076079;28;20131;-61
2023/10/23 13:46:42;;;;;;;4.20;1.83;;;;;;;;;;5074790;28;20044;-61
2023/10/23 13:49:08;;;;;;;2.85;0.95;;;;;;;;;;5074562;28;20028;-61
2023/10/23 13:51:33;;;;;;;3.42;1.35;;;;;;;;;;5072558;28;20086;-61
2023/10/23 13:53:58;;;;;;;2.08;1.13;;;;;;;;;;5075185;28;20059;-61
2023/10/23 13:56:24;;;;;;;2.30;1.17;;;;;;;;;;5075799;28;20032;-61
2023/10/23 13:58:50;;;;;;;3.65;1.63;;;;;;;;;;5075693;28;20032;-61
2023/10/23 14:01:16;;;;;;;3.13;1.73;;;;;;;;;;5075228;28;20094;-61
2023/10/23 14:03:41;;;;;;;4.35;2.17;;;;;;;;;;5075836;28;20104;-61
2023/10/23 14:06:07;;;;;;;4.43;2.25;;;;;;;;;;5076023;28;20031;-61
2023/10/23 14:08:33;;;;;;;3.50;2.33;;;;;;;;;;5075441;28;20029;-61
2023/10/23 14:10:58;;;;;;;5.60;2.72;;;;;;;;;;5074758;28;20033;-61
2023/10/23 14:13:24;;;;;;;6.75;3.22;;;;;;;;;;5074712;28;20025;-61
2023/10/23 14:15:50;;;;;;;3.55;2.05;;;;;;;;;;5076019;28;20033;-61
2023/10/23 14:18:15;;;;;;;6.28;2.28;;;;;;;;;;5075384;28;20111;-61
2023/10/23 14:20:41;;;;;;;8.90;3.33;;;;;;;;;;5075629;28;20119;-61
2023/10/23 14:23:06;;;;;;;7.15;3.42;;;;;;;;;;5075766;28;20379;-61
2023/10/23 14:25:32;;;;;;;4.78;2.25;;;;;;;;;;5075509;28;20451;-61
2023/10/23 14:27:57;;;;;;;2.90;1.95;;;;;;;;;;5074104;28;20027;-61
2023/10/23 14:30:22;;;;;;;2.75;1.88;;;;;;;;;;5075110;28;20052;-61
2023/10/23 14:32:48;;;;;;;3.08;1.63;;;;;;;;;;5075785;28;20094;-61
2023/10/23 14:35:13;;;;;;;5.65;1.70;;;;;;;;;;5075041;28;20064;-61
2023/10/23 14:37:39;;;;;;;5.65;2.40;;;;;;;;;;5075252;28;20033;-61
2023/10/23 14:40:05;;;;;;;2.08;1.67;;;;;;;;;;5075406;28;20031;-61
2023/10/23 14:42:31;;;;;;;3.08;1.75;;;;;;;;;;5074270;28;20368;-61
2023/10/23 14:44:57;;;;;;;5.40;2.10;;;;;;;;;;5074917;28;20020;-61